createdAt,value
2023-03-21T00:00:34.452Z,6.18
2023-03-21T00:03:01.670Z,7.78
2023-03-21T00:05:28.324Z,8.90
2023-03-21T00:07:54.781Z,8.70
2023-03-21T00:10:37.199Z,7.57
2023-03-21T00:13:05.817Z,8.68
2023-03-21T00:15:44.145Z,9.25
2023-03-21T00:18:20.877Z,8.65
2023-03-21T00:21:37.417Z,9.07
2023-03-21T00:23:52.340Z,8.25
2023-03-21T00:26:18.760Z,8.52
2023-03-21T00:28:45.179Z,7.97
2023-03-21T00:31:12.571Z,8.75
2023-03-21T00:33:39.309Z,8.27
2023-03-21T00:36:07.576Z,7.47
2023-03-21T00:38:35.215Z,9.18
2023-03-21T00:41:20.833Z,9.63
2023-03-21T00:43:51.869Z,7.82
2023-03-21T00:46:18.306Z,8.52
2023-03-21T00:48:44.896Z,8.05
2023-03-21T00:51:15.456Z,7.95
2023-03-21T00:53:42.451Z,7.95
2023-03-21T00:56:09.070Z,8.35
2023-03-21T00:58:35.641Z,8.43
2023-03-21T01:01:02.571Z,8.77
2023-03-21T01:03:29.161Z,7.93
2023-03-21T01:06:05.479Z,7.55
2023-03-21T01:08:51.172Z,8.02
2023-03-21T01:11:21.651Z,8.32
2023-03-21T01:13:54.731Z,7.28
2023-03-21T01:16:26.436Z,7.75
2023-03-21T01:18:52.860Z,8.27
2023-03-21T01:21:19.826Z,7.78
2023-03-21T01:23:46.347Z,8.13
2023-03-21T01:26:13.184Z,8.38
2023-03-21T01:28:41.732Z,7.68
2023-03-21T01:31:10.562Z,8.02
2023-03-21T01:33:36.961Z,7.32
2023-03-21T01:36:12.717Z,7.63
2023-03-21T01:38:40.890Z,7.18
2023-03-21T01:41:18.720Z,8.35
2023-03-21T01:43:46.567Z,7.70
2023-03-21T01:46:49.371Z,7.63
2023-03-21T01:49:59.052Z,7.55
2023-03-21T01:52:49.812Z,8.18
2023-03-21T01:55:23.402Z,8.07
2023-03-21T01:58:05.871Z,7.90
2023-03-21T02:01:04.625Z,7.57
2023-03-21T02:03:49.997Z,7.60
2023-03-21T02:06:31.604Z,7.70
2023-03-21T02:09:09.928Z,7.10
2023-03-21T02:11:38.852Z,7.17
2023-03-21T02:14:07.160Z,7.97
2023-03-21T02:19:53.846Z,9.00
2023-03-21T02:22:24.887Z,7.75
2023-03-21T02:25:13.235Z,7.60
2023-03-21T02:28:07.826Z,7.25
2023-03-21T02:30:51.627Z,7.93
2023-03-21T02:33:31.887Z,8.30
2023-03-21T02:36:45.842Z,8.05
2023-03-21T02:39:17.846Z,8.95
2023-03-21T02:42:05.758Z,8.73
2023-03-21T02:44:46.427Z,8.68
2023-03-21T02:47:52.514Z,8.10
2023-03-21T02:50:27.660Z,8.73
2023-03-21T02:52:55.147Z,8.80
2023-03-21T02:55:26.976Z,8.63
2023-03-21T02:58:06.966Z,8.25
2023-03-21T03:00:38.202Z,8.25
2023-03-21T03:03:09.863Z,8.05
2023-03-21T03:05:55.424Z,7.88
2023-03-21T03:08:38.408Z,7.82
2023-03-21T03:11:28.763Z,8.15
2023-03-21T03:14:21.167Z,8.80
2023-03-21T03:17:09.648Z,8.90
2023-03-21T03:19:50.605Z,8.75
2023-03-21T03:22:28.331Z,9.40
2023-03-21T03:25:19.779Z,8.80
2023-03-21T03:27:56.550Z,9.25
2023-03-21T03:30:29.675Z,8.73
2023-03-21T03:33:03.470Z,8.80
2023-03-21T03:35:30.262Z,8.75
2023-03-21T03:38:00.512Z,9.05
2023-03-21T03:40:31.683Z,8.82
2023-03-21T03:43:20.422Z,9.35
2023-03-21T03:45:54.238Z,8.25
2023-03-21T03:48:28.592Z,9.90
2023-03-21T03:51:03.991Z,9.75
2023-03-21T03:53:55.691Z,10.27
2023-03-21T03:56:26.403Z,9.20
2023-03-21T03:58:53.514Z,10.05
2023-03-21T04:01:26.567Z,9.68
2023-03-21T04:04:03.785Z,9.70
2023-03-21T04:06:36.993Z,10.20
2023-03-21T04:09:13.708Z,12.18
2023-03-21T04:11:45.681Z,11.23
2023-03-21T04:14:12.397Z,12.40
2023-03-21T04:16:39.059Z,12.00
2023-03-21T04:19:05.571Z,11.30
2023-03-21T04:21:31.964Z,11.40
2023-03-21T04:23:59.983Z,11.25
2023-03-21T04:26:32.740Z,9.82
2023-03-21T04:29:20.317Z,11.65
2023-03-21T04:32:16.110Z,10.85
2023-03-21T04:34:49.956Z,10.32
2023-03-21T04:37:19.081Z,10.73
2023-03-21T04:39:47.568Z,10.52
2023-03-21T04:42:15.526Z,7.88
2023-03-21T04:44:41.890Z,8.10
2023-03-21T04:47:08.451Z,8.50
2023-03-21T04:49:35.640Z,7.25
2023-03-21T04:52:02.911Z,8.40
2023-03-21T04:54:29.362Z,8.40
2023-03-21T04:56:56.686Z,7.75
2023-03-21T04:59:26.452Z,8.23
2023-03-21T05:01:53.563Z,8.52
2023-03-21T05:04:20.064Z,7.45
2023-03-21T05:06:46.568Z,8.65
2023-03-21T05:09:16.118Z,9.07
2023-03-21T05:11:43.576Z,8.13
2023-03-21T05:14:18.543Z,8.25
2023-03-21T05:16:48.581Z,8.98
2023-03-21T05:19:17.297Z,8.13
2023-03-21T05:21:44.961Z,8.30
2023-03-21T05:24:18.548Z,10.48
2023-03-21T05:26:50.279Z,10.95
2023-03-21T05:29:19.167Z,9.65
2023-03-21T05:31:52.105Z,10.13
2023-03-21T05:34:19.767Z,8.82
2023-03-21T05:36:46.228Z,7.30
2023-03-21T05:39:12.656Z,7.47
2023-03-21T05:44:13.285Z,7.82
2023-03-21T05:46:39.692Z,7.07
2023-03-21T05:49:06.966Z,7.95
2023-03-21T05:51:33.632Z,8.38
2023-03-21T05:54:00.086Z,7.53
2023-03-21T05:56:26.585Z,8.27
2023-03-21T05:59:00.857Z,7.95
2023-03-21T06:01:29.601Z,8.18
2023-03-21T06:04:06.220Z,8.32
2023-03-21T06:06:33.578Z,9.23
2023-03-21T06:09:00.891Z,8.38
2023-03-21T06:11:31.999Z,7.72
2023-03-21T06:14:17.282Z,7.35
2023-03-21T06:16:45.679Z,8.00
2023-03-21T06:19:12.433Z,8.38
2023-03-21T06:21:57.690Z,8.23
2023-03-21T06:24:24.489Z,8.10
2023-03-21T06:26:50.870Z,9.57
2023-03-21T06:29:17.807Z,8.98
2023-03-21T06:31:48.360Z,7.88
2023-03-21T06:34:16.117Z,7.60
2023-03-21T06:36:44.595Z,9.20
2023-03-21T06:39:13.282Z,9.75
2023-03-21T06:41:40.505Z,8.52
2023-03-21T06:44:07.484Z,9.32
2023-03-21T06:46:41.019Z,8.25
2023-03-21T06:49:08.532Z,8.70
2023-03-21T06:51:35.166Z,9.18
2023-03-21T06:54:08.561Z,9.40
2023-03-21T06:56:39.820Z,9.45
2023-03-21T06:59:09.001Z,9.98
2023-03-21T07:01:50.196Z,9.18
2023-03-21T07:04:16.684Z,9.52
2023-03-21T07:06:43.531Z,9.05
2023-03-21T07:09:10.363Z,9.15
2023-03-21T07:11:37.895Z,8.95
2023-03-21T07:14:05.395Z,8.50
2023-03-21T07:16:32.521Z,8.45
2023-03-21T07:18:58.997Z,9.15
2023-03-21T07:21:26.084Z,9.65
2023-03-21T07:23:53.438Z,9.05
2023-03-21T07:26:19.861Z,8.05
2023-03-21T07:28:46.434Z,7.93
2023-03-21T07:31:16.414Z,8.07
2023-03-21T07:33:43.378Z,8.98
2023-03-21T07:36:12.747Z,8.68
2023-03-21T07:38:40.893Z,7.78
2023-03-21T07:41:07.863Z,7.10
2023-03-21T07:43:36.432Z,7.82
2023-03-21T07:46:08.748Z,7.00
2023-03-21T07:48:35.377Z,6.97
2023-03-21T07:51:02.244Z,7.38
2023-03-21T07:53:28.635Z,7.78
2023-03-21T07:55:56.523Z,8.00
2023-03-21T07:58:28.330Z,8.35
2023-03-21T08:00:57.736Z,8.60
2023-03-21T08:03:26.183Z,8.73
2023-03-21T08:05:52.726Z,8.40
2023-03-21T08:08:19.317Z,8.60
2023-03-21T08:10:45.804Z,8.93
2023-03-21T08:13:12.986Z,8.73
2023-03-21T08:15:42.013Z,9.10
2023-03-21T08:18:09.287Z,9.02
2023-03-21T08:20:36.159Z,9.65
2023-03-21T08:23:02.876Z,8.40
2023-03-21T08:25:29.390Z,7.13
2023-03-21T08:27:56.110Z,8.88
2023-03-21T08:30:26.279Z,7.90
2023-03-21T08:33:00.494Z,7.97
2023-03-21T08:35:27.759Z,7.43
2023-03-21T08:37:54.259Z,8.15
2023-03-21T08:40:20.863Z,8.30
2023-03-21T08:42:47.369Z,8.77
2023-03-21T08:45:15.845Z,8.02
2023-03-21T08:47:43.030Z,6.85
2023-03-21T08:50:12.434Z,7.63
2023-03-21T08:52:38.858Z,8.13
2023-03-21T08:55:05.733Z,7.22
2023-03-21T08:57:32.228Z,7.35
2023-03-21T08:59:58.674Z,6.68
2023-03-21T09:02:25.469Z,6.60
2023-03-21T09:04:58.778Z,7.20
2023-03-21T09:07:25.864Z,8.13
2023-03-21T09:10:08.286Z,8.95
2023-03-21T09:12:41.031Z,6.88
2023-03-21T09:15:09.526Z,7.32
2023-03-21T09:17:36.434Z,8.80
2023-03-21T09:20:11.084Z,8.55
2023-03-21T09:22:42.688Z,8.27
2023-03-21T09:25:11.216Z,7.38
2023-03-21T09:27:37.734Z,8.27
2023-03-21T09:30:06.018Z,8.93
2023-03-21T09:32:32.653Z,7.82
2023-03-21T09:34:59.720Z,8.68
2023-03-21T09:37:26.487Z,9.38
2023-03-21T09:39:53.105Z,8.30
2023-03-21T09:43:03.767Z,8.35
2023-03-21T09:45:41.360Z,7.82
2023-03-21T09:48:19.980Z,7.55
2023-03-21T09:50:46.947Z,8.50
2023-03-21T09:53:23.498Z,7.53
2023-03-21T09:55:50.104Z,7.57
2023-03-21T09:58:36.481Z,7.50
2023-03-21T10:01:10.261Z,6.82
2023-03-21T10:03:38.194Z,7.35
2023-03-21T10:06:13.026Z,6.97
2023-03-21T10:08:41.428Z,6.82
2023-03-21T10:11:22.057Z,6.15
2023-03-21T10:13:53.784Z,6.95
2023-03-21T10:16:27.987Z,5.95
2023-03-21T10:18:55.605Z,6.65
2023-03-21T10:21:51.454Z,7.20
2023-03-21T10:24:13.777Z,5.13
2023-03-21T10:26:40.567Z,5.60
2023-03-21T10:29:07.530Z,5.15
2023-03-21T10:31:34.144Z,6.32
2023-03-21T10:34:08.333Z,6.00
2023-03-21T10:36:36.038Z,5.95
2023-03-21T10:39:06.087Z,6.80
2023-03-21T10:41:33.874Z,30.55
2023-03-21T10:44:06.961Z,11.05
2023-03-21T10:49:03.505Z,5.60
2023-03-21T10:51:36.839Z,6.53
2023-03-21T10:54:11.768Z,5.75
2023-03-21T10:56:43.512Z,6.38
2023-03-21T10:59:20.399Z,6.60
2023-03-21T11:01:52.115Z,6.60
2023-03-21T11:04:26.178Z,6.13
2023-03-21T11:06:59.536Z,6.22
2023-03-21T11:09:42.956Z,7.63
2023-03-21T11:12:11.841Z,7.75
2023-03-21T11:14:45.146Z,6.88
2023-03-21T11:17:17.583Z,6.97
2023-03-21T11:20:18.858Z,5.90
2023-03-21T11:22:46.888Z,7.03
2023-03-21T11:25:41.352Z,7.10
2023-03-21T11:28:21.540Z,6.80
2023-03-21T11:30:52.419Z,6.13
2023-03-21T11:33:19.873Z,6.40
2023-03-21T11:35:59.546Z,6.57
2023-03-21T11:38:31.570Z,7.20
2023-03-21T11:41:01.275Z,6.72
2023-03-21T11:43:31.859Z,7.45
2023-03-21T11:45:58.556Z,7.95
2023-03-21T11:48:25.405Z,7.43
2023-03-21T11:51:00.596Z,6.65
2023-03-21T11:53:48.194Z,7.20
2023-03-21T11:56:27.227Z,7.85
2023-03-21T11:59:06.807Z,7.38
2023-03-21T12:01:44.450Z,6.82
2023-03-21T12:04:20.798Z,7.07
2023-03-21T12:06:59.266Z,6.80
2023-03-21T12:09:39.731Z,6.00
2023-03-21T12:12:38.289Z,6.95
2023-03-21T12:15:27.686Z,6.70
2023-03-21T12:18:15.061Z,7.07
2023-03-21T12:20:47.277Z,6.60
2023-03-21T12:23:47.940Z,7.43
2023-03-21T12:26:27.786Z,6.47
2023-03-21T12:29:18.403Z,8.10
2023-03-21T12:31:56.086Z,7.43
2023-03-21T12:35:00.136Z,8.07
2023-03-21T12:37:37.219Z,8.30
2023-03-21T12:40:36.346Z,8.18
2023-03-21T12:43:26.653Z,8.80
2023-03-21T12:46:03.180Z,8.63
2023-03-21T12:48:58.547Z,7.72
2023-03-21T12:51:32.292Z,8.65
2023-03-21T12:54:17.494Z,9.27
2023-03-21T12:56:57.178Z,9.68
2023-03-21T12:59:48.961Z,9.30
2023-03-21T13:02:27.264Z,8.93
2023-03-21T13:05:01.628Z,8.35
2023-03-21T13:07:31.754Z,9.38
2023-03-21T13:09:59.406Z,8.65
2023-03-21T13:12:42.680Z,8.25
2023-03-21T13:15:34.030Z,7.78
2023-03-21T13:18:26.232Z,7.45
2023-03-21T13:20:55.896Z,7.20
2023-03-21T13:23:24.857Z,7.82
2023-03-21T13:25:55.631Z,5.63
2023-03-21T13:28:27.359Z,6.35
2023-03-21T13:30:54.198Z,5.85
2023-03-21T13:33:25.785Z,5.00
2023-03-21T13:36:18.466Z,5.57
2023-03-21T13:38:51.589Z,5.38
2023-03-21T13:41:23.424Z,5.95
2023-03-21T13:44:09.861Z,6.85
2023-03-21T13:46:53.742Z,5.40
2023-03-21T13:49:38.248Z,5.72
2023-03-21T13:52:10.922Z,7.10
2023-03-21T13:54:51.648Z,5.95
2023-03-21T13:57:29.321Z,6.22
2023-03-21T14:00:19.400Z,6.15
2023-03-21T14:03:17.980Z,5.55
2023-03-21T14:05:50.707Z,6.63
2023-03-21T14:08:31.211Z,7.40
2023-03-21T14:11:07.265Z,7.70
2023-03-21T14:13:38.041Z,9.50
2023-03-21T14:16:17.046Z,8.90
2023-03-21T14:18:55.088Z,8.02
2023-03-21T14:21:29.477Z,7.60
2023-03-21T14:24:01.470Z,7.93
2023-03-21T14:26:31.923Z,8.05
2023-03-21T14:28:59.114Z,9.00
2023-03-21T14:31:26.539Z,8.32
2023-03-21T14:33:57.485Z,9.32
2023-03-21T14:36:32.864Z,7.57
2023-03-21T14:39:05.117Z,7.20
2023-03-21T14:41:33.441Z,7.82
2023-03-21T14:44:12.141Z,7.93
2023-03-21T14:46:39.535Z,7.53
2023-03-21T14:49:27.728Z,8.80
2023-03-21T14:51:57.089Z,7.07
2023-03-21T14:54:27.110Z,8.60
2023-03-21T14:57:00.303Z,8.77
2023-03-21T14:59:47.461Z,8.15
2023-03-21T15:02:29.246Z,7.05
2023-03-21T15:04:58.921Z,8.45
2023-03-21T15:07:27.050Z,8.15
2023-03-21T15:09:56.446Z,7.25
2023-03-21T15:12:23.156Z,9.90
2023-03-21T15:14:50.251Z,8.50
2023-03-21T15:17:16.990Z,9.32
2023-03-21T15:19:43.830Z,9.73
2023-03-21T15:22:19.282Z,8.27
2023-03-21T15:24:52.632Z,9.05
2023-03-21T15:27:23.605Z,8.73
2023-03-21T15:29:54.044Z,8.73
2023-03-21T15:32:24.789Z,8.90
2023-03-21T15:35:04.811Z,9.00
2023-03-21T15:37:34.887Z,8.05
2023-03-21T15:40:14.884Z,8.23
2023-03-21T15:42:42.258Z,7.95
2023-03-21T15:45:22.429Z,8.32
2023-03-21T15:47:48.865Z,8.27
2023-03-21T15:50:24.166Z,9.15
2023-03-21T15:52:52.198Z,7.68
2023-03-21T15:55:26.843Z,7.03
2023-03-21T15:57:59.887Z,8.38
2023-03-21T16:03:12.895Z,8.07
2023-03-21T16:05:39.573Z,7.22
2023-03-21T16:08:27.165Z,7.90
2023-03-21T16:10:53.608Z,7.57
2023-03-21T16:13:20.006Z,8.13
2023-03-21T16:15:46.933Z,8.00
2023-03-21T16:18:16.120Z,9.32
2023-03-21T16:20:45.995Z,7.18
2023-03-21T16:23:14.207Z,10.05
2023-03-21T16:25:41.812Z,7.72
2023-03-21T16:28:17.502Z,8.25
2023-03-21T16:30:44.662Z,8.38
2023-03-21T16:33:12.482Z,7.80
2023-03-21T16:35:39.010Z,10.60
2023-03-21T16:38:05.463Z,8.98
2023-03-21T16:40:37.841Z,8.55
2023-03-21T16:43:04.396Z,8.45
2023-03-21T16:45:31.431Z,8.50
2023-03-21T16:47:59.204Z,7.65
2023-03-21T16:50:33.307Z,6.80
2023-03-21T16:53:00.577Z,7.85
2023-03-21T16:55:27.769Z,7.20
2023-03-21T16:57:54.435Z,7.95
2023-03-21T17:00:25.242Z,8.48
2023-03-21T17:02:54.553Z,8.40
2023-03-21T17:05:26.051Z,9.15
2023-03-21T17:07:54.172Z,8.82
2023-03-21T17:10:25.110Z,8.50
2023-03-21T17:12:52.602Z,9.30
2023-03-21T17:15:19.856Z,9.13
2023-03-21T17:17:48.649Z,9.52
2023-03-21T17:20:15.290Z,8.55
2023-03-21T17:22:42.055Z,9.68
2023-03-21T17:25:08.602Z,8.98
2023-03-21T17:27:35.779Z,9.77
2023-03-21T17:30:02.436Z,8.88
2023-03-21T17:32:28.864Z,9.40
2023-03-21T17:34:55.373Z,8.50
2023-03-21T17:37:22.041Z,9.70
2023-03-21T17:39:48.520Z,8.57
2023-03-21T17:42:15.809Z,9.75
2023-03-21T17:44:42.203Z,9.25
2023-03-21T17:47:10.554Z,9.27
2023-03-21T17:49:37.043Z,8.27
2023-03-21T17:52:03.615Z,8.02
2023-03-21T17:54:30.199Z,7.32
2023-03-21T17:56:56.650Z,8.45
2023-03-21T17:59:23.042Z,9.23
2023-03-21T18:01:49.656Z,8.02
2023-03-21T18:04:16.086Z,8.00
2023-03-21T18:06:42.647Z,8.60
2023-03-21T18:09:12.406Z,9.77
2023-03-21T18:11:40.185Z,9.30
2023-03-21T18:14:15.949Z,9.65
2023-03-21T18:16:44.485Z,9.45
2023-03-21T18:19:12.756Z,9.73
2023-03-21T18:21:40.656Z,10.65
2023-03-21T18:24:07.180Z,10.20
2023-03-21T18:26:33.931Z,9.07
2023-03-21T18:32:02.532Z,9.73
2023-03-21T18:34:31.941Z,10.60
2023-03-21T18:36:58.398Z,11.00
2023-03-21T18:39:24.930Z,9.95
2023-03-21T18:41:51.289Z,9.48
2023-03-21T18:44:21.865Z,9.52
2023-03-21T18:46:50.566Z,11.52
2023-03-21T18:52:04.714Z,13.02
2023-03-21T18:54:31.332Z,14.63
2023-03-21T18:59:44.926Z,17.10
2023-03-21T19:02:13.859Z,15.43
2023-03-21T19:04:40.723Z,13.63
2023-03-21T19:07:08.421Z,12.40
2023-03-21T19:09:58.257Z,13.68
2023-03-21T19:12:23.559Z,13.27
2023-03-21T19:14:49.928Z,13.15
2023-03-21T19:18:15.420Z,13.25
2023-03-21T19:20:05.559Z,12.50
2023-03-21T19:22:32.012Z,12.70
2023-03-21T19:24:58.707Z,12.05
2023-03-21T19:27:25.196Z,13.45
2023-03-21T19:30:08.408Z,12.35
2023-03-21T19:32:38.508Z,12.93
2023-03-21T19:35:05.829Z,12.55
2023-03-21T19:37:35.217Z,12.80
2023-03-21T19:40:03.409Z,11.95
2023-03-21T19:42:30.850Z,14.27
2023-03-21T19:44:57.731Z,13.75
2023-03-21T19:47:24.265Z,12.05
2023-03-21T19:52:40.329Z,12.32
2023-03-21T19:55:07.040Z,13.52
2023-03-21T19:57:34.861Z,11.60
2023-03-21T20:00:01.871Z,11.82
2023-03-21T20:02:37.499Z,11.25
2023-03-21T20:05:06.003Z,11.77
2023-03-21T20:07:32.969Z,12.98
2023-03-21T20:09:59.951Z,13.00
2023-03-21T20:12:28.527Z,12.90
2023-03-21T20:15:06.986Z,13.40
2023-03-21T20:17:38.665Z,13.38
2023-03-21T20:20:10.279Z,12.45
2023-03-21T20:23:05.096Z,11.98
2023-03-21T20:25:24.290Z,12.07
2023-03-21T20:28:07.293Z,11.60
2023-03-21T20:30:37.756Z,12.70
2023-03-21T20:33:04.345Z,11.52
2023-03-21T20:36:16.533Z,11.40
2023-03-21T20:38:20.432Z,11.23
2023-03-21T20:40:47.879Z,12.77
2023-03-21T20:43:52.217Z,12.88
2023-03-21T20:46:03.770Z,13.15
2023-03-21T20:48:30.627Z,13.73
2023-03-21T20:51:57.908Z,12.57
2023-03-21T20:53:55.220Z,14.60
2023-03-21T20:56:21.722Z,13.98
2023-03-21T20:59:08.605Z,15.13
2023-03-21T21:01:34.838Z,14.68
2023-03-21T21:04:01.413Z,15.35
2023-03-21T21:06:31.243Z,15.07
2023-03-21T21:08:59.367Z,13.85
2023-03-21T21:14:15.068Z,13.95
2023-03-21T21:16:42.023Z,15.23
2023-03-21T21:19:08.595Z,16.58
2023-03-21T21:21:35.070Z,18.42
2023-03-21T21:24:02.364Z,19.05
2023-03-21T21:26:28.832Z,18.67
2023-03-21T21:28:58.040Z,16.88
2023-03-21T21:31:24.515Z,14.77
2023-03-21T21:33:54.095Z,15.07
2023-03-21T21:36:22.470Z,16.88
2023-03-21T21:38:50.127Z,14.85
2023-03-21T21:41:21.331Z,15.52
2023-03-21T21:43:47.987Z,16.17
2023-03-21T21:46:15.498Z,17.25
2023-03-21T21:48:42.852Z,16.30
2023-03-21T21:51:09.769Z,14.00
2023-03-21T21:53:36.525Z,14.90
2023-03-21T21:56:06.221Z,16.67
2023-03-21T21:58:33.819Z,15.13
2023-03-21T22:01:01.791Z,13.48
2023-03-21T22:03:36.268Z,15.13
2023-03-21T22:06:04.409Z,12.55
2023-03-21T22:08:30.975Z,12.60
2023-03-21T22:10:57.751Z,13.20
2023-03-21T22:13:24.209Z,12.75
2023-03-21T22:15:50.661Z,12.27
2023-03-21T22:18:17.229Z,13.43
2023-03-21T22:20:44.795Z,12.35
2023-03-21T22:23:11.546Z,12.38
2023-03-21T22:25:38.360Z,13.32
2023-03-21T22:28:04.888Z,12.45
2023-03-21T22:30:31.671Z,12.20
2023-03-21T22:33:08.890Z,12.75
2023-03-21T22:35:35.923Z,13.68
2023-03-21T22:38:02.334Z,14.10
2023-03-21T22:40:28.761Z,13.20
2023-03-21T22:42:55.152Z,13.80
2023-03-21T22:45:21.680Z,14.32
2023-03-21T22:47:48.059Z,14.30
2023-03-21T22:50:14.527Z,15.15
2023-03-21T22:52:40.940Z,16.05
2023-03-21T22:55:09.845Z,15.15
2023-03-21T22:57:36.281Z,14.80
2023-03-21T23:00:06.228Z,14.90
2023-03-21T23:02:32.610Z,15.93
2023-03-21T23:04:58.987Z,18.00
2023-03-21T23:07:25.679Z,16.70
2023-03-21T23:09:52.117Z,16.75
2023-03-21T23:12:18.482Z,17.00
2023-03-21T23:14:45.229Z,16.05
2023-03-21T23:17:12.361Z,15.57
2023-03-21T23:19:40.970Z,17.23
2023-03-21T23:22:07.641Z,18.13
2023-03-21T23:24:34.275Z,16.10
2023-03-21T23:27:00.765Z,17.17
2023-03-21T23:29:27.218Z,17.10
2023-03-21T23:31:53.727Z,16.70
2023-03-21T23:34:20.378Z,14.95
2023-03-21T23:36:47.385Z,15.85
2023-03-21T23:39:13.875Z,14.95
2023-03-21T23:41:42.627Z,14.30
2023-03-21T23:44:09.348Z,13.57
2023-03-21T23:46:35.858Z,14.77
2023-03-21T23:49:02.280Z,14.05
2023-03-21T23:51:28.673Z,15.75
2023-03-21T23:53:56.435Z,14.77
2023-03-21T23:56:25.381Z,13.63
2023-03-21T23:58:51.922Z,13.73
